Accueil
METAR-TAF:

METAR-TAF

Aéroports :

Khartoum, Soudan

Aéroport international de Khartoum

latitude: 15-36N, longitude: 032-33E, altitude: 382 m

Observation

Le bulletin a été fait il y a 43 minutes, à 04:30 UTC
Vent 4 kt de sud
Température 27°C
Humidité 42%
Pression 1010 hPa
Visibilité: 8000 m

METAR: HSSS 260430Z 17004KT 8000 27/13 Q1010 NOSIG

Heure: 08:13 (05:13 UTC)


TAF: absent

Observations et prévisions météorologiques de plus de 4000 aéroports (messages METAR et TAF).

Les stations disponibles sont représentées par des disques jaunes et rouges sur la carte.

Passer la souris dessus pour voir le nom de la station.

Cliquer dessus pour voir les observations et prévisions météorologiques.

Pour changer de carte: cliquez sur les boutons verts avec une croix noire pour zoomer, sur le bouton vert avec un tiret pour effectuer un zoom arrière, ou sur les flèches vertes pour les cartes adjacentes.


METAR-TAF: